createdAt,value
2019-03-20T00:00:56.986Z,4.40
2019-03-20T00:03:22.997Z,3.87
2019-03-20T00:05:51.648Z,4.03
2019-03-20T00:08:17.262Z,4.00
2019-03-20T00:10:49.359Z,3.40
2019-03-20T00:13:15.367Z,4.27
2019-03-20T00:15:41.230Z,4.57
2019-03-20T00:18:06.904Z,3.20
2019-03-20T00:20:32.577Z,3.73
2019-03-20T00:22:59.099Z,3.57
2019-03-20T00:25:26.691Z,3.87
2019-03-20T00:27:54.723Z,3.23
2019-03-20T00:30:20.793Z,4.17
2019-03-20T00:32:46.422Z,3.80
2019-03-20T00:35:12.431Z,3.93
2019-03-20T00:37:37.964Z,3.00
2019-03-20T00:40:04.769Z,3.90
2019-03-20T00:42:30.532Z,4.07
2019-03-20T00:44:56.132Z,3.97
2019-03-20T00:47:21.772Z,3.43
2019-03-20T00:49:47.358Z,3.13
2019-03-20T00:52:12.950Z,3.27
2019-03-20T00:54:38.550Z,3.03
2019-03-20T00:57:04.148Z,4.23
2019-03-20T00:59:29.754Z,4.17
2019-03-20T01:01:55.612Z,3.43
2019-03-20T01:04:21.276Z,3.57
2019-03-20T01:06:46.902Z,3.30
2019-03-20T01:09:12.884Z,4.27
2019-03-20T01:11:39.336Z,2.93
2019-03-20T01:14:05.082Z,4.20
2019-03-20T01:16:30.801Z,3.80
2019-03-20T01:18:56.353Z,3.80
2019-03-20T01:21:22.030Z,3.80
2019-03-20T01:23:47.715Z,3.93
2019-03-20T01:26:13.272Z,4.33
2019-03-20T01:28:38.875Z,4.20
2019-03-20T01:31:05.804Z,3.87
2019-03-20T01:33:31.434Z,4.07
2019-03-20T01:35:57.019Z,3.63
2019-03-20T01:38:22.536Z,3.07
2019-03-20T01:40:48.892Z,4.00
2019-03-20T01:43:17.439Z,3.17
2019-03-20T01:45:45.951Z,4.13
2019-03-20T01:48:11.888Z,3.50
2019-03-20T01:50:37.469Z,3.23
2019-03-20T01:53:03.403Z,3.40
2019-03-20T01:55:29.074Z,3.53
2019-03-20T01:57:54.921Z,3.50
2019-03-20T02:00:21.470Z,4.03
2019-03-20T02:02:47.081Z,3.10
2019-03-20T02:05:13.434Z,4.13
2019-03-20T02:07:39.379Z,3.20
2019-03-20T02:10:07.201Z,3.40
2019-03-20T02:12:32.934Z,3.90
2019-03-20T02:14:58.212Z,4.00
2019-03-20T02:17:23.846Z,3.83
2019-03-20T02:19:49.731Z,3.20
2019-03-20T02:22:15.407Z,3.20
2019-03-20T02:24:40.976Z,2.93
2019-03-20T02:27:07.191Z,2.93
2019-03-20T02:29:32.776Z,2.90
2019-03-20T02:31:58.391Z,3.10
2019-03-20T02:34:23.993Z,3.30
2019-03-20T02:36:49.715Z,4.00
2019-03-20T02:39:15.577Z,3.40
2019-03-20T02:41:41.564Z,3.30
2019-03-20T02:44:07.559Z,3.60
2019-03-20T02:46:33.318Z,3.20
2019-03-20T02:48:59.112Z,3.20
2019-03-20T02:51:24.807Z,3.80
2019-03-20T02:53:50.397Z,3.60
2019-03-20T02:56:16.008Z,3.13
2019-03-20T02:58:41.565Z,3.60
2019-03-20T03:01:07.177Z,3.13
2019-03-20T03:03:32.840Z,3.63
2019-03-20T03:06:06.780Z,3.40
2019-03-20T03:08:25.368Z,3.23
2019-03-20T03:10:51.661Z,3.00
2019-03-20T03:13:17.274Z,3.50
2019-03-20T03:15:43.973Z,3.67
2019-03-20T03:18:09.544Z,4.53
2019-03-20T03:20:35.129Z,4.20
2019-03-20T03:23:01.043Z,4.40
2019-03-20T03:25:26.241Z,5.10
2019-03-20T03:27:51.452Z,4.67
2019-03-20T03:30:17.458Z,5.30
2019-03-20T03:32:42.822Z,5.40
2019-03-20T03:35:08.756Z,5.30
2019-03-20T03:37:34.086Z,5.70
2019-03-20T03:39:59.773Z,5.60
2019-03-20T03:42:25.356Z,5.50
2019-03-20T03:44:50.916Z,6.90
2019-03-20T03:47:16.480Z,6.53
2019-03-20T03:49:42.126Z,7.10
2019-03-20T03:52:07.869Z,8.40
2019-03-20T03:54:33.449Z,8.20
2019-03-20T03:56:59.157Z,8.97
2019-03-20T03:59:24.803Z,8.50
2019-03-20T04:01:50.646Z,8.10
2019-03-20T04:04:16.309Z,8.60
2019-03-20T04:06:42.169Z,9.20
2019-03-20T04:09:07.907Z,7.30
2019-03-20T04:11:33.666Z,9.53
2019-03-20T04:13:59.252Z,8.47
2019-03-20T04:16:24.858Z,9.00
2019-03-20T04:18:50.420Z,10.37
2019-03-20T04:21:16.064Z,9.63
2019-03-20T04:23:44.208Z,9.50
2019-03-20T04:26:10.049Z,10.17
2019-03-20T04:28:35.660Z,10.23
2019-03-20T04:31:01.237Z,10.47
2019-03-20T04:33:26.802Z,11.43
2019-03-20T04:35:52.539Z,11.10
2019-03-20T04:38:18.151Z,10.70
2019-03-20T04:40:43.705Z,10.97
2019-03-20T04:43:09.456Z,12.30
2019-03-20T04:45:35.208Z,11.50
2019-03-20T04:48:00.800Z,12.70
2019-03-20T04:50:26.391Z,13.47
2019-03-20T04:52:52.053Z,16.37
2019-03-20T04:55:17.684Z,13.30
2019-03-20T04:57:45.638Z,12.43
2019-03-20T05:00:12.638Z,12.40
2019-03-20T05:02:38.195Z,12.83
2019-03-20T05:05:04.166Z,12.80
2019-03-20T05:07:29.699Z,13.13
2019-03-20T05:09:56.038Z,15.20
2019-03-20T05:12:42.535Z,14.77
2019-03-20T05:15:11.586Z,15.00
2019-03-20T05:17:37.136Z,15.00
2019-03-20T05:20:04.324Z,15.60
2019-03-20T05:22:29.853Z,16.33
2019-03-20T05:24:55.417Z,15.50
2019-03-20T05:27:20.944Z,15.93
2019-03-20T05:29:46.538Z,16.20
2019-03-20T05:32:12.298Z,15.60
2019-03-20T05:34:42.910Z,18.03
2019-03-20T05:37:10.663Z,17.43
2019-03-20T05:39:36.113Z,18.10
2019-03-20T05:42:01.897Z,18.07
2019-03-20T05:44:27.495Z,17.87
2019-03-20T05:47:02.610Z,18.20
2019-03-20T05:49:32.129Z,18.00
2019-03-20T05:52:06.938Z,17.03
2019-03-20T05:54:32.582Z,17.73
2019-03-20T05:56:58.232Z,19.57
2019-03-20T05:59:24.055Z,18.10
2019-03-20T06:01:52.859Z,17.53
2019-03-20T06:04:18.629Z,19.07
2019-03-20T06:06:44.361Z,19.83
2019-03-20T06:09:09.996Z,19.10
2019-03-20T06:11:37.623Z,18.43
2019-03-20T06:14:03.608Z,19.93
2019-03-20T06:16:31.704Z,19.77
2019-03-20T06:18:57.337Z,18.60
2019-03-20T06:21:22.963Z,19.67
2019-03-20T06:23:48.618Z,19.40
2019-03-20T06:26:14.411Z,21.17
2019-03-20T06:28:40.257Z,18.67
2019-03-20T06:31:05.857Z,18.93
2019-03-20T06:33:31.129Z,17.27
2019-03-20T06:35:56.467Z,19.80
2019-03-20T06:38:21.775Z,20.27
2019-03-20T06:40:46.971Z,18.23
2019-03-20T06:43:13.206Z,17.73
2019-03-20T06:45:40.524Z,18.03
2019-03-20T06:48:06.212Z,18.83
2019-03-20T06:50:32.337Z,19.00
2019-03-20T06:53:00.435Z,19.10
2019-03-20T06:55:26.201Z,18.80
2019-03-20T06:57:51.592Z,18.27
2019-03-20T07:00:26.420Z,18.93
2019-03-20T07:02:52.041Z,18.67
2019-03-20T07:05:41.257Z,19.43
2019-03-20T07:08:06.852Z,19.53
2019-03-20T07:10:45.005Z,18.67
2019-03-20T07:13:10.338Z,19.23
2019-03-20T07:15:35.835Z,19.90
2019-03-20T07:18:01.350Z,20.10
2019-03-20T07:20:26.671Z,20.27
2019-03-20T07:22:52.052Z,21.83
2019-03-20T07:25:18.281Z,21.10
2019-03-20T07:27:43.527Z,23.00
2019-03-20T07:30:10.879Z,22.63
2019-03-20T07:32:36.103Z,22.70
2019-03-20T07:35:03.627Z,24.47
2019-03-20T07:37:28.999Z,25.03
2019-03-20T07:39:54.136Z,26.20
2019-03-20T07:42:29.647Z,25.27
2019-03-20T07:44:54.987Z,24.13
2019-03-20T07:47:20.162Z,24.50
2019-03-20T07:49:45.368Z,27.10
2019-03-20T07:52:10.588Z,27.53
2019-03-20T07:54:35.788Z,23.00
2019-03-20T07:57:01.060Z,25.60
2019-03-20T07:59:26.445Z,26.33
2019-03-20T08:01:52.822Z,26.10
2019-03-20T08:04:18.047Z,24.40
2019-03-20T08:06:43.357Z,27.33
2019-03-20T08:09:08.532Z,25.70
2019-03-20T08:11:35.835Z,25.43
2019-03-20T08:14:01.405Z,25.57
2019-03-20T08:16:27.030Z,28.33
2019-03-20T08:18:53.603Z,25.40
2019-03-20T08:21:19.181Z,26.77
2019-03-20T08:23:44.881Z,25.03
2019-03-20T08:26:10.510Z,25.47
2019-03-20T08:28:36.896Z,24.80
2019-03-20T08:31:02.796Z,26.27
2019-03-20T08:33:28.393Z,23.80
2019-03-20T08:35:54.402Z,24.03
2019-03-20T08:38:20.043Z,25.30
2019-03-20T08:40:45.572Z,26.57
2019-03-20T08:43:11.182Z,26.00
2019-03-20T08:45:36.875Z,25.03
2019-03-20T08:48:02.643Z,25.47
2019-03-20T08:50:28.179Z,24.60
2019-03-20T08:52:53.740Z,24.50
2019-03-20T08:55:19.684Z,24.60
2019-03-20T08:57:45.359Z,25.23
2019-03-20T09:00:13.519Z,25.57
2019-03-20T09:02:38.881Z,24.30
2019-03-20T09:05:08.027Z,24.90
2019-03-20T09:07:33.831Z,26.10
2019-03-20T09:09:59.463Z,25.23
2019-03-20T09:12:24.680Z,23.30
2019-03-20T09:14:49.965Z,22.20
2019-03-20T09:17:15.732Z,23.13
2019-03-20T09:19:41.317Z,23.37
2019-03-20T09:22:07.933Z,24.20
2019-03-20T09:24:33.492Z,22.20
2019-03-20T09:26:59.088Z,23.70
2019-03-20T09:29:35.668Z,23.53
2019-03-20T09:31:52.940Z,21.50
2019-03-20T09:34:18.467Z,23.10
2019-03-20T09:36:44.011Z,22.10
2019-03-20T09:39:09.640Z,22.13
2019-03-20T09:41:35.572Z,20.87
2019-03-20T09:44:01.223Z,22.70
2019-03-20T09:46:27.034Z,21.37
2019-03-20T09:48:52.624Z,21.60
2019-03-20T09:51:18.185Z,20.90
2019-03-20T09:53:44.796Z,20.40
2019-03-20T09:56:10.326Z,20.80
2019-03-20T09:58:35.897Z,21.13
2019-03-20T10:01:01.487Z,21.40
2019-03-20T10:03:27.665Z,20.90
2019-03-20T10:05:53.446Z,21.17
2019-03-20T10:08:19.077Z,20.37
2019-03-20T10:10:44.743Z,21.53
2019-03-20T10:13:11.385Z,21.80
2019-03-20T10:15:37.156Z,22.00
2019-03-20T10:18:02.947Z,21.37
2019-03-20T10:20:29.595Z,22.80
2019-03-20T10:22:55.663Z,21.30
2019-03-20T10:25:21.285Z,21.53
2019-03-20T10:27:46.943Z,23.47
2019-03-20T10:30:16.794Z,22.20
2019-03-20T10:32:42.061Z,21.93
2019-03-20T10:35:08.279Z,22.20
2019-03-20T10:37:33.662Z,21.93
2019-03-20T10:39:58.935Z,23.70
2019-03-20T10:42:24.130Z,22.27
2019-03-20T10:44:49.453Z,22.30
2019-03-20T10:47:14.676Z,22.60
2019-03-20T10:49:40.858Z,22.73
2019-03-20T10:52:06.101Z,21.30
2019-03-20T10:54:31.271Z,21.90
2019-03-20T10:56:56.627Z,22.77
2019-03-20T10:59:21.876Z,21.60
2019-03-20T11:01:47.774Z,22.33
2019-03-20T11:04:13.414Z,22.63
2019-03-20T11:06:38.970Z,24.20
2019-03-20T11:09:05.384Z,22.23
2019-03-20T11:11:31.090Z,23.00
2019-03-20T11:13:56.670Z,23.57
2019-03-20T11:16:22.200Z,22.83
2019-03-20T11:18:48.620Z,25.40
2019-03-20T11:21:14.361Z,24.47
2019-03-20T11:23:40.018Z,24.77
2019-03-20T11:26:05.559Z,23.73
2019-03-20T11:28:31.260Z,25.27
2019-03-20T11:30:57.055Z,24.47
2019-03-20T11:33:22.718Z,25.10
2019-03-20T11:35:48.686Z,25.23
2019-03-20T11:38:14.252Z,23.77
2019-03-20T11:40:40.289Z,24.43
2019-03-20T11:43:06.289Z,23.93
2019-03-20T11:45:31.952Z,24.33
2019-03-20T11:47:57.551Z,24.20
2019-03-20T11:50:33.229Z,24.50
2019-03-20T11:52:59.029Z,25.60
2019-03-20T11:55:24.710Z,25.07
2019-03-20T11:57:50.483Z,26.43
2019-03-20T12:00:16.894Z,25.97
2019-03-20T12:02:42.492Z,26.60
2019-03-20T12:05:08.173Z,24.60
2019-03-20T12:07:33.725Z,23.83
2019-03-20T12:09:59.250Z,25.30
2019-03-20T12:12:24.828Z,25.20
2019-03-20T12:14:50.383Z,25.10
2019-03-20T12:17:15.913Z,22.93
2019-03-20T12:19:45.126Z,24.13
2019-03-20T12:22:09.257Z,24.33
2019-03-20T12:24:34.955Z,26.00
2019-03-20T12:27:00.532Z,27.37
2019-03-20T12:29:26.388Z,25.77
2019-03-20T12:31:51.921Z,25.40
2019-03-20T12:34:17.523Z,26.27
2019-03-20T12:36:43.144Z,27.50
2019-03-20T12:39:08.711Z,25.83
2019-03-20T12:41:34.444Z,24.00
2019-03-20T12:44:00.308Z,26.10
2019-03-20T12:46:25.901Z,25.07
2019-03-20T12:48:51.686Z,26.17
2019-03-20T12:51:17.318Z,25.63
2019-03-20T12:53:42.856Z,25.10
2019-03-20T12:56:08.468Z,26.63
2019-03-20T12:58:34.056Z,26.13
2019-03-20T13:00:59.596Z,25.10
2019-03-20T13:03:25.120Z,26.40
2019-03-20T13:05:50.841Z,27.00
2019-03-20T13:08:16.399Z,26.50
2019-03-20T13:10:42.038Z,27.63
2019-03-20T13:13:07.629Z,27.73
2019-03-20T13:15:33.617Z,26.87
2019-03-20T13:18:01.393Z,27.20
2019-03-20T13:20:27.349Z,27.90
2019-03-20T13:23:03.484Z,28.07
2019-03-20T13:25:29.265Z,28.97
2019-03-20T13:27:54.832Z,28.00
2019-03-20T13:30:26.109Z,28.00
2019-03-20T13:32:51.827Z,27.93
2019-03-20T13:35:17.408Z,31.00
2019-03-20T13:37:43.143Z,28.20
2019-03-20T13:40:14.472Z,31.20
2019-03-20T13:42:36.863Z,28.53
2019-03-20T13:45:04.544Z,30.63
2019-03-20T13:47:31.127Z,28.93
2019-03-20T13:49:58.104Z,30.17
2019-03-20T13:52:27.198Z,30.10
2019-03-20T13:54:52.929Z,30.60
2019-03-20T13:57:18.561Z,30.30
2019-03-20T13:59:46.086Z,31.17
2019-03-20T14:02:12.629Z,31.00
2019-03-20T14:04:38.165Z,31.17
2019-03-20T14:07:03.987Z,31.77
2019-03-20T14:09:29.597Z,31.63
2019-03-20T14:11:55.414Z,31.70
2019-03-20T14:14:21.046Z,33.43
2019-03-20T14:16:46.926Z,31.63
2019-03-20T14:19:12.519Z,33.40
2019-03-20T14:21:38.512Z,32.40
2019-03-20T14:24:04.146Z,33.30
2019-03-20T14:26:29.838Z,32.67
2019-03-20T14:28:55.615Z,33.47
2019-03-20T14:31:21.190Z,32.00
2019-03-20T14:33:46.840Z,32.90
2019-03-20T14:36:12.679Z,33.27
2019-03-20T14:38:38.309Z,32.60
2019-03-20T14:41:05.042Z,34.90
2019-03-20T14:43:30.777Z,35.30
2019-03-20T14:46:00.466Z,33.80
2019-03-20T14:48:26.798Z,32.43
2019-03-20T14:50:53.291Z,34.50
2019-03-20T14:53:18.959Z,33.27
2019-03-20T14:55:44.559Z,33.90
2019-03-20T14:58:10.640Z,35.33
2019-03-20T15:00:36.396Z,35.00
2019-03-20T15:03:02.382Z,33.37
2019-03-20T15:05:28.462Z,33.23
2019-03-20T15:07:54.139Z,33.70
2019-03-20T15:10:21.670Z,32.70
2019-03-20T15:12:48.598Z,34.37
2019-03-20T15:15:16.033Z,33.63
2019-03-20T15:17:41.587Z,32.70
2019-03-20T15:20:09.032Z,34.50
2019-03-20T15:22:35.743Z,33.50
2019-03-20T15:25:01.278Z,33.13
2019-03-20T15:27:29.180Z,33.07
2019-03-20T15:29:54.801Z,33.83
2019-03-20T15:32:20.950Z,34.13
2019-03-20T15:34:46.511Z,32.87
2019-03-20T15:37:12.444Z,32.93
2019-03-20T15:39:38.173Z,34.23
2019-03-20T15:42:04.644Z,32.93
2019-03-20T15:44:30.456Z,34.40
2019-03-20T15:46:56.307Z,35.00
2019-03-20T15:49:22.632Z,33.30
2019-03-20T15:51:48.440Z,34.27
2019-03-20T15:54:14.976Z,34.53
2019-03-20T15:56:40.595Z,35.33
2019-03-20T15:59:06.143Z,33.03
2019-03-20T16:01:31.857Z,33.73
2019-03-20T16:03:57.982Z,34.20
2019-03-20T16:06:23.590Z,34.07
2019-03-20T16:08:49.624Z,33.47
2019-03-20T16:11:15.671Z,33.70
2019-03-20T16:13:41.683Z,36.87
2019-03-20T16:16:07.432Z,35.77
2019-03-20T16:18:33.236Z,37.27
2019-03-20T16:20:58.865Z,33.80
2019-03-20T16:23:24.468Z,32.90
2019-03-20T16:25:50.081Z,35.23
2019-03-20T16:28:15.682Z,35.70
2019-03-20T16:30:41.223Z,36.20
2019-03-20T16:33:07.008Z,34.17
2019-03-20T16:35:32.754Z,35.67
2019-03-20T16:37:58.452Z,34.60
2019-03-20T16:40:29.164Z,35.20
2019-03-20T16:42:54.837Z,35.07
2019-03-20T16:45:22.243Z,34.40
2019-03-20T16:47:47.904Z,35.27
2019-03-20T16:50:14.518Z,34.60
2019-03-20T16:52:40.504Z,33.67
2019-03-20T16:55:07.566Z,34.40
2019-03-20T16:57:33.207Z,37.97
2019-03-20T16:59:58.957Z,35.13
2019-03-20T17:02:25.790Z,35.40
2019-03-20T17:04:51.432Z,37.63
2019-03-20T17:07:17.061Z,37.13
2019-03-20T17:09:42.658Z,36.63
2019-03-20T17:12:10.309Z,37.23
2019-03-20T17:14:35.867Z,35.23
2019-03-20T17:17:02.151Z,37.90
2019-03-20T17:19:27.811Z,37.50
2019-03-20T17:21:53.415Z,37.20
2019-03-20T17:24:18.971Z,38.10
2019-03-20T17:26:44.551Z,35.77
2019-03-20T17:29:10.117Z,38.77
2019-03-20T17:31:35.763Z,38.80
2019-03-20T17:34:01.311Z,39.90
2019-03-20T17:36:26.991Z,37.80
2019-03-20T17:38:52.616Z,40.37
2019-03-20T17:41:18.184Z,37.60
2019-03-20T17:43:45.797Z,40.90
2019-03-20T17:46:11.540Z,39.30
2019-03-20T17:48:37.385Z,40.00
2019-03-20T17:51:03.038Z,39.93
2019-03-20T17:53:28.736Z,41.23
2019-03-20T17:55:54.352Z,40.00
2019-03-20T17:58:20.126Z,41.57
2019-03-20T18:00:47.735Z,41.90
2019-03-20T18:03:13.374Z,38.83
2019-03-20T18:05:38.972Z,39.90
2019-03-20T18:08:05.397Z,39.83
2019-03-20T18:10:33.152Z,40.10
2019-03-20T18:13:00.769Z,40.10
2019-03-20T18:15:26.428Z,39.93
2019-03-20T18:17:52.101Z,39.80
2019-03-20T18:20:20.703Z,40.57
2019-03-20T18:22:46.483Z,41.30
2019-03-20T18:25:12.517Z,39.27
2019-03-20T18:27:38.225Z,42.20
2019-03-20T18:30:05.961Z,42.23
2019-03-20T18:32:32.441Z,42.20
2019-03-20T18:34:58.198Z,42.20
2019-03-20T18:37:23.885Z,41.70
2019-03-20T18:39:49.587Z,40.77
2019-03-20T18:42:15.245Z,46.93
2019-03-20T18:44:40.963Z,44.17
2019-03-20T18:47:06.554Z,41.83
2019-03-20T18:49:32.318Z,42.17
2019-03-20T18:51:57.939Z,42.20
2019-03-20T18:54:24.537Z,43.10
2019-03-20T18:56:50.180Z,42.47
2019-03-20T18:59:16.112Z,46.33
2019-03-20T19:01:41.808Z,43.17
2019-03-20T19:04:07.421Z,43.77
2019-03-20T19:06:33.207Z,42.63
2019-03-20T19:08:58.809Z,42.10
2019-03-20T19:11:25.697Z,44.43
2019-03-20T19:13:53.396Z,45.70
2019-03-20T19:16:18.931Z,42.93
2019-03-20T19:18:44.461Z,45.30
2019-03-20T19:21:10.061Z,44.87
2019-03-20T19:23:36.570Z,43.07
2019-03-20T19:26:05.078Z,44.17
2019-03-20T19:28:31.016Z,43.37
2019-03-20T19:30:56.672Z,45.33
2019-03-20T19:33:22.287Z,46.67
2019-03-20T19:35:47.889Z,44.60
2019-03-20T19:38:13.612Z,44.97
2019-03-20T19:40:40.183Z,44.60
2019-03-20T19:43:06.089Z,45.40
2019-03-20T19:45:32.422Z,45.67
2019-03-20T19:48:02.928Z,43.13
2019-03-20T19:50:28.653Z,47.57
2019-03-20T19:52:54.213Z,44.77
2019-03-20T19:55:19.880Z,46.50
2019-03-20T19:57:45.538Z,45.20
2019-03-20T20:00:15.746Z,47.27
2019-03-20T20:02:41.317Z,45.40
2019-03-20T20:05:15.323Z,47.07
2019-03-20T20:07:34.936Z,51.50
2019-03-20T20:10:01.562Z,47.47
2019-03-20T20:12:31.393Z,48.40
2019-03-20T20:14:55.829Z,46.20
2019-03-20T20:17:21.496Z,45.20
2019-03-20T20:19:47.085Z,48.30
2019-03-20T20:22:12.826Z,51.43
2019-03-20T20:24:38.453Z,48.30
2019-03-20T20:27:06.178Z,47.63
2019-03-20T20:29:32.061Z,46.57
2019-03-20T20:31:58.035Z,47.07
2019-03-20T20:34:24.254Z,49.77
2019-03-20T20:36:50.117Z,46.37
2019-03-20T20:39:27.517Z,49.00
2019-03-20T20:41:53.509Z,46.77
2019-03-20T20:44:19.128Z,48.97
2019-03-20T20:46:54.239Z,49.20
2019-03-20T20:49:20.622Z,53.37
2019-03-20T20:51:46.371Z,48.80
2019-03-20T20:54:12.528Z,49.90
2019-03-20T20:56:41.122Z,50.47
2019-03-20T20:59:10.859Z,49.40
2019-03-20T21:01:37.063Z,51.00
2019-03-20T21:04:03.009Z,49.07
2019-03-20T21:06:29.663Z,56.37
2019-03-20T21:08:55.264Z,56.33
2019-03-20T21:11:22.439Z,50.70
2019-03-20T21:13:47.984Z,48.93
2019-03-20T21:16:13.601Z,47.50
2019-03-20T21:18:47.172Z,46.50
2019-03-20T21:21:12.816Z,47.53
2019-03-20T21:23:57.953Z,46.70
2019-03-20T21:26:37.012Z,45.30
2019-03-20T21:29:13.693Z,46.07
2019-03-20T21:31:45.005Z,48.33
2019-03-20T21:34:21.855Z,46.97
2019-03-20T21:36:52.398Z,49.40
2019-03-20T21:39:17.943Z,49.07
2019-03-20T21:41:57.468Z,49.27
2019-03-20T21:44:38.940Z,47.70
2019-03-20T21:47:35.692Z,46.57
2019-03-20T21:50:03.589Z,48.40
2019-03-20T21:52:31.371Z,48.60
2019-03-20T21:55:18.636Z,49.90
2019-03-20T21:57:52.082Z,51.00
2019-03-20T22:00:22.275Z,49.37
2019-03-20T22:02:50.176Z,50.17
2019-03-20T22:05:47.869Z,47.97
2019-03-20T22:08:16.687Z,47.17
2019-03-20T22:11:01.158Z,48.47
2019-03-20T22:13:28.991Z,50.20
2019-03-20T22:16:01.420Z,49.30
2019-03-20T22:18:35.910Z,49.30
2019-03-20T22:21:09.814Z,47.57
2019-03-20T22:23:40.687Z,48.77
2019-03-20T22:29:33.653Z,46.63
2019-03-20T22:32:04.388Z,47.33
2019-03-20T22:34:39.033Z,49.80
2019-03-20T22:37:04.648Z,47.53
2019-03-20T22:39:34.949Z,47.87
2019-03-20T22:42:02.581Z,48.70
2019-03-20T22:44:28.401Z,48.50
2019-03-20T22:52:50.102Z,49.03
2019-03-20T22:58:16.302Z,49.50
2019-03-20T23:00:47.465Z,51.50
2019-03-20T23:03:17.823Z,50.10
2019-03-20T23:05:46.609Z,51.73
2019-03-20T23:08:15.990Z,50.47
2019-03-20T23:10:44.735Z,53.13
2019-03-20T23:13:18.878Z,50.50
2019-03-20T23:15:40.797Z,52.10
2019-03-20T23:18:18.847Z,54.50
2019-03-20T23:20:47.837Z,54.60
2019-03-20T23:23:15.481Z,55.63
2019-03-20T23:25:43.860Z,53.27
2019-03-20T23:28:14.298Z,56.23
2019-03-20T23:30:40.753Z,59.67
2019-03-20T23:33:06.614Z,59.33
2019-03-20T23:35:32.392Z,57.57
2019-03-20T23:37:58.372Z,58.40
2019-03-20T23:40:24.118Z,57.97
2019-03-20T23:42:58.078Z,60.73
2019-03-20T23:51:12.878Z,61.50
2019-03-20T23:53:47.474Z,59.73
2019-03-20T23:56:13.960Z,60.07
2019-03-20T23:58:39.582Z,61.30
